sensor_id;sensor_type;location;lat;lon;timestamp;temperature;humidity
50544;DHT22;41176;44.032;20.900;2022-08-03T00:00:12;21.10;90.40
50544;DHT22;41176;44.032;20.900;2022-08-03T00:02:40;21.10;90.20
50544;DHT22;41176;44.032;20.900;2022-08-03T00:05:08;21.10;90.20
50544;DHT22;41176;44.032;20.900;2022-08-03T00:07:34;21.00;90.20
50544;DHT22;41176;44.032;20.900;2022-08-03T00:10:19;21.10;90.30
50544;DHT22;41176;44.032;20.900;2022-08-03T00:12:52;21.10;90.20
50544;DHT22;41176;44.032;20.900;2022-08-03T00:15:18;21.10;89.90
50544;DHT22;41176;44.032;20.900;2022-08-03T00:17:45;21.10;89.90
50544;DHT22;41176;44.032;20.900;2022-08-03T00:20:11;21.10;90.00
50544;DHT22;41176;44.032;20.900;2022-08-03T00:22:40;21.10;90.10
50544;DHT22;41176;44.032;20.900;2022-08-03T00:25:06;21.00;89.90
50544;DHT22;41176;44.032;20.900;2022-08-03T00:27:32;21.10;89.90
50544;DHT22;41176;44.032;20.900;2022-08-03T00:29:58;21.00;89.20
50544;DHT22;41176;44.032;20.900;2022-08-03T00:32:24;21.10;89.50
50544;DHT22;41176;44.032;20.900;2022-08-03T00:34:50;21.00;89.50
50544;DHT22;41176;44.032;20.900;2022-08-03T00:37:36;21.00;89.00
50544;DHT22;41176;44.032;20.900;2022-08-03T00:40:05;21.00;88.70
50544;DHT22;41176;44.032;20.900;2022-08-03T00:42:31;21.10;88.80
50544;DHT22;41176;44.032;20.900;2022-08-03T00:44:57;21.00;89.50
50544;DHT22;41176;44.032;20.900;2022-08-03T00:47:23;21.00;90.00
50544;DHT22;41176;44.032;20.900;2022-08-03T00:49:48;20.90;89.70
50544;DHT22;41176;44.032;20.900;2022-08-03T00:52:15;20.90;89.40
50544;DHT22;41176;44.032;20.900;2022-08-03T00:54:41;20.90;89.70
50544;DHT22;41176;44.032;20.900;2022-08-03T00:57:08;20.90;89.80
50544;DHT22;41176;44.032;20.900;2022-08-03T00:59:34;20.90;90.30
50544;DHT22;41176;44.032;20.900;2022-08-03T01:01:59;20.90;90.00
50544;DHT22;41176;44.032;20.900;2022-08-03T01:04:46;20.80;90.10
50544;DHT22;41176;44.032;20.900;2022-08-03T01:26:41;20.30;91.70
50544;DHT22;41176;44.032;20.900;2022-08-03T01:29:56;20.40;91.60
50544;DHT22;41176;44.032;20.900;2022-08-03T01:32:21;20.30;91.60
50544;DHT22;41176;44.032;20.900;2022-08-03T01:35:01;20.30;91.70
50544;DHT22;41176;44.032;20.900;2022-08-03T01:37:34;20.30;91.70
50544;DHT22;41176;44.032;20.900;2022-08-03T01:40:01;20.30;91.70
50544;DHT22;41176;44.032;20.900;2022-08-03T01:42:29;20.30;91.50
50544;DHT22;41176;44.032;20.900;2022-08-03T01:44:58;20.30;91.60
50544;DHT22;41176;44.032;20.900;2022-08-03T01:47:27;20.40;91.50
50544;DHT22;41176;44.032;20.900;2022-08-03T01:52:56;20.40;91.30
50544;DHT22;41176;44.032;20.900;2022-08-03T01:55:53;20.40;91.40
50544;DHT22;41176;44.032;20.900;2022-08-03T01:58:20;20.40;91.50
50544;DHT22;41176;44.032;20.900;2022-08-03T02:00:49;20.30;91.60
50544;DHT22;41176;44.032;20.900;2022-08-03T02:03:16;20.30;91.70
50544;DHT22;41176;44.032;20.900;2022-08-03T02:13:16;20.30;91.80
50544;DHT22;41176;44.032;20.900;2022-08-03T02:16:22;20.30;92.00
50544;DHT22;41176;44.032;20.900;2022-08-03T02:18:51;20.30;91.90
50544;DHT22;41176;44.032;20.900;2022-08-03T02:21:30;20.30;91.70
50544;DHT22;41176;44.032;20.900;2022-08-03T02:24:13;20.30;91.60
50544;DHT22;41176;44.032;20.900;2022-08-03T02:26:58;20.40;91.70
50544;DHT22;41176;44.032;20.900;2022-08-03T02:30:17;20.40;91.70
50544;DHT22;41176;44.032;20.900;2022-08-03T02:33:02;20.40;91.80
50544;DHT22;41176;44.032;20.900;2022-08-03T02:35:38;20.30;92.10
50544;DHT22;41176;44.032;20.900;2022-08-03T02:38:41;20.30;92.20
50544;DHT22;41176;44.032;20.900;2022-08-03T02:44:59;20.20;92.30
50544;DHT22;41176;44.032;20.900;2022-08-03T02:47:27;20.20;92.30
50544;DHT22;41176;44.032;20.900;2022-08-03T02:49:58;20.20;92.50
50544;DHT22;41176;44.032;20.900;2022-08-03T02:52:27;20.20;92.40
50544;DHT22;41176;44.032;20.900;2022-08-03T02:55:04;20.20;92.50
50544;DHT22;41176;44.032;20.900;2022-08-03T02:57:40;20.20;92.60
50544;DHT22;41176;44.032;20.900;2022-08-03T03:00:19;20.20;92.40
50544;DHT22;41176;44.032;20.900;2022-08-03T03:02:48;20.30;92.50
50544;DHT22;41176;44.032;20.900;2022-08-03T03:05:14;20.30;92.40
50544;DHT22;41176;44.032;20.900;2022-08-03T03:11:01;20.40;92.50
50544;DHT22;41176;44.032;20.900;2022-08-03T03:13:54;20.30;92.80
50544;DHT22;41176;44.032;20.900;2022-08-03T03:16:25;20.30;92.60
50544;DHT22;41176;44.032;20.900;2022-08-03T03:19:05;20.30;92.80
50544;DHT22;41176;44.032;20.900;2022-08-03T03:21:49;20.30;92.70
50544;DHT22;41176;44.032;20.900;2022-08-03T03:24:16;20.30;92.80
50544;DHT22;41176;44.032;20.900;2022-08-03T03:27:06;20.40;92.70
50544;DHT22;41176;44.032;20.900;2022-08-03T03:29:32;20.40;92.90
50544;DHT22;41176;44.032;20.900;2022-08-03T03:32:09;20.40;92.80
50544;DHT22;41176;44.032;20.900;2022-08-03T03:48:41;20.10;95.30
50544;DHT22;41176;44.032;20.900;2022-08-03T03:54:07;20.10;95.70
50544;DHT22;41176;44.032;20.900;2022-08-03T03:56:58;20.20;95.60
50544;DHT22;41176;44.032;20.900;2022-08-03T03:59:50;20.20;95.30
50544;DHT22;41176;44.032;20.900;2022-08-03T04:03:48;20.20;95.00
50544;DHT22;41176;44.032;20.900;2022-08-03T04:05:56;20.20;95.40
50544;DHT22;41176;44.032;20.900;2022-08-03T04:08:43;20.20;95.40
50544;DHT22;41176;44.032;20.900;2022-08-03T04:11:27;20.30;96.20
50544;DHT22;41176;44.032;20.900;2022-08-03T04:13:57;20.30;96.30
50544;DHT22;41176;44.032;20.900;2022-08-03T04:16:27;20.40;96.80
50544;DHT22;41176;44.032;20.900;2022-08-03T04:19:00;20.40;98.20
50544;DHT22;41176;44.032;20.900;2022-08-03T04:21:28;20.30;97.50
50544;DHT22;41176;44.032;20.900;2022-08-03T04:23:58;20.40;97.00
50544;DHT22;41176;44.032;20.900;2022-08-03T04:26:27;20.40;97.20
50544;DHT22;41176;44.032;20.900;2022-08-03T04:28:56;20.50;96.50
50544;DHT22;41176;44.032;20.900;2022-08-03T04:31:23;20.50;95.90
50544;DHT22;41176;44.032;20.900;2022-08-03T04:33:53;20.50;96.00
50544;DHT22;41176;44.032;20.900;2022-08-03T04:36:25;20.60;95.80
50544;DHT22;41176;44.032;20.900;2022-08-03T04:39:01;20.60;96.10
50544;DHT22;41176;44.032;20.900;2022-08-03T04:41:29;20.60;95.50
50544;DHT22;41176;44.032;20.900;2022-08-03T04:43:57;20.70;95.30
50544;DHT22;41176;44.032;20.900;2022-08-03T04:46:37;20.60;95.00
50544;DHT22;41176;44.032;20.900;2022-08-03T04:49:04;20.50;95.50
50544;DHT22;41176;44.032;20.900;2022-08-03T04:51:31;20.40;96.30
50544;DHT22;41176;44.032;20.900;2022-08-03T04:53:59;20.60;96.50
50544;DHT22;41176;44.032;20.900;2022-08-03T04:56:25;20.70;96.00
50544;DHT22;41176;44.032;20.900;2022-08-03T04:58:51;20.80;96.10
50544;DHT22;41176;44.032;20.900;2022-08-03T05:01:18;20.90;95.40
50544;DHT22;41176;44.032;20.900;2022-08-03T05:03:45;21.00;95.10
50544;DHT22;41176;44.032;20.900;2022-08-03T05:06:11;21.10;94.80
50544;DHT22;41176;44.032;20.900;2022-08-03T05:08:38;21.20;95.90
50544;DHT22;41176;44.032;20.900;2022-08-03T05:11:04;21.30;96.30
50544;DHT22;41176;44.032;20.900;2022-08-03T05:13:29;21.40;96.30
50544;DHT22;41176;44.032;20.900;2022-08-03T05:15:55;21.40;96.20
50544;DHT22;41176;44.032;20.900;2022-08-03T05:18:21;21.40;96.80
50544;DHT22;41176;44.032;20.900;2022-08-03T05:20:47;21.50;97.50
50544;DHT22;41176;44.032;20.900;2022-08-03T05:23:13;21.50;96.10
50544;DHT22;41176;44.032;20.900;2022-08-03T05:25:38;21.50;95.50
50544;DHT22;41176;44.032;20.900;2022-08-03T05:28:04;21.60;95.70
50544;DHT22;41176;44.032;20.900;2022-08-03T05:30:30;21.70;95.60
50544;DHT22;41176;44.032;20.900;2022-08-03T05:32:56;21.70;95.50
50544;DHT22;41176;44.032;20.900;2022-08-03T05:35:21;21.70;95.60
50544;DHT22;41176;44.032;20.900;2022-08-03T05:37:49;21.80;94.80
50544;DHT22;41176;44.032;20.900;2022-08-03T05:40:15;21.90;94.60
50544;DHT22;41176;44.032;20.900;2022-08-03T05:42:41;22.10;94.40
50544;DHT22;41176;44.032;20.900;2022-08-03T05:45:07;22.20;95.00
50544;DHT22;41176;44.032;20.900;2022-08-03T05:47:46;22.30;94.90
50544;DHT22;41176;44.032;20.900;2022-08-03T05:50:13;22.40;94.40
50544;DHT22;41176;44.032;20.900;2022-08-03T05:52:39;22.50;93.20
50544;DHT22;41176;44.032;20.900;2022-08-03T05:55:06;22.50;93.10
50544;DHT22;41176;44.032;20.900;2022-08-03T05:57:34;22.60;93.10
50544;DHT22;41176;44.032;20.900;2022-08-03T06:00:02;22.70;93.80
50544;DHT22;41176;44.032;20.900;2022-08-03T06:02:29;22.80;92.90
50544;DHT22;41176;44.032;20.900;2022-08-03T06:04:55;22.90;92.30
50544;DHT22;41176;44.032;20.900;2022-08-03T06:07:21;23.00;93.30
50544;DHT22;41176;44.032;20.900;2022-08-03T06:09:46;23.20;92.70
50544;DHT22;41176;44.032;20.900;2022-08-03T06:12:12;23.20;92.00
50544;DHT22;41176;44.032;20.900;2022-08-03T06:14:38;23.40;92.50
50544;DHT22;41176;44.032;20.900;2022-08-03T06:17:04;23.50;92.00
50544;DHT22;41176;44.032;20.900;2022-08-03T06:19:29;23.70;92.10
50544;DHT22;41176;44.032;20.900;2022-08-03T06:21:55;23.80;91.20
50544;DHT22;41176;44.032;20.900;2022-08-03T06:24:21;23.90;91.70
50544;DHT22;41176;44.032;20.900;2022-08-03T06:26:47;24.10;91.70
50544;DHT22;41176;44.032;20.900;2022-08-03T06:29:12;24.20;91.40
50544;DHT22;41176;44.032;20.900;2022-08-03T06:31:38;24.40;91.80
50544;DHT22;41176;44.032;20.900;2022-08-03T06:34:29;24.60;91.50
50544;DHT22;41176;44.032;20.900;2022-08-03T06:36:55;24.80;90.90
50544;DHT22;41176;44.032;20.900;2022-08-03T06:39:22;25.00;90.10
50544;DHT22;41176;44.032;20.900;2022-08-03T06:41:47;25.20;88.40
50544;DHT22;41176;44.032;20.900;2022-08-03T06:44:13;25.50;88.80
50544;DHT22;41176;44.032;20.900;2022-08-03T06:46:39;25.60;86.20
50544;DHT22;41176;44.032;20.900;2022-08-03T06:49:08;25.80;86.40
50544;DHT22;41176;44.032;20.900;2022-08-03T06:51:34;26.10;85.70
50544;DHT22;41176;44.032;20.900;2022-08-03T06:54:00;26.30;83.70
50544;DHT22;41176;44.032;20.900;2022-08-03T06:56:25;26.50;83.60
50544;DHT22;41176;44.032;20.900;2022-08-03T06:58:51;26.70;82.00
50544;DHT22;41176;44.032;20.900;2022-08-03T07:01:17;26.90;81.00
50544;DHT22;41176;44.032;20.900;2022-08-03T07:03:42;26.90;80.60
50544;DHT22;41176;44.032;20.900;2022-08-03T07:06:08;27.10;80.90
50544;DHT22;41176;44.032;20.900;2022-08-03T07:08:34;27.30;81.30
50544;DHT22;41176;44.032;20.900;2022-08-03T07:11:00;27.40;78.90
50544;DHT22;41176;44.032;20.900;2022-08-03T07:13:26;27.50;78.70
50544;DHT22;41176;44.032;20.900;2022-08-03T07:15:51;27.70;79.30
50544;DHT22;41176;44.032;20.900;2022-08-03T07:18:17;27.80;77.30
50544;DHT22;41176;44.032;20.900;2022-08-03T07:20:43;28.00;76.40
50544;DHT22;41176;44.032;20.900;2022-08-03T07:23:09;28.10;76.60
50544;DHT22;41176;44.032;20.900;2022-08-03T07:25:34;28.30;74.80
50544;DHT22;41176;44.032;20.900;2022-08-03T07:28:00;28.40;75.10
50544;DHT22;41176;44.032;20.900;2022-08-03T07:30:26;28.50;75.20
50544;DHT22;41176;44.032;20.900;2022-08-03T07:32:52;28.70;75.20
50544;DHT22;41176;44.032;20.900;2022-08-03T07:35:21;29.00;74.50
50544;DHT22;41176;44.032;20.900;2022-08-03T07:37:47;29.10;73.00
50544;DHT22;41176;44.032;20.900;2022-08-03T07:40:13;29.30;71.90
50544;DHT22;41176;44.032;20.900;2022-08-03T07:42:38;29.50;70.80
50544;DHT22;41176;44.032;20.900;2022-08-03T07:45:13;29.50;70.00
50544;DHT22;41176;44.032;20.900;2022-08-03T07:47:39;29.40;71.20
50544;DHT22;41176;44.032;20.900;2022-08-03T07:50:06;29.40;70.00
50544;DHT22;41176;44.032;20.900;2022-08-03T07:52:32;29.70;68.10
50544;DHT22;41176;44.032;20.900;2022-08-03T07:55:12;30.00;68.20
50544;DHT22;41176;44.032;20.900;2022-08-03T07:57:38;30.00;66.80
50544;DHT22;41176;44.032;20.900;2022-08-03T08:06:48;30.80;64.90
50544;DHT22;41176;44.032;20.900;2022-08-03T08:09:14;31.10;63.80
50544;DHT22;41176;44.032;20.900;2022-08-03T08:12:09;31.10;62.10
50544;DHT22;41176;44.032;20.900;2022-08-03T08:14:38;30.70;63.50
50544;DHT22;41176;44.032;20.900;2022-08-03T08:17:03;30.90;64.70
50544;DHT22;41176;44.032;20.900;2022-08-03T08:19:29;31.20;62.40
50544;DHT22;41176;44.032;20.900;2022-08-03T08:21:55;31.30;62.70
50544;DHT22;41176;44.032;20.900;2022-08-03T08:24:33;31.40;62.50
50544;DHT22;41176;44.032;20.900;2022-08-03T08:54:39;33.30;57.10
50544;DHT22;41176;44.032;20.900;2022-08-03T08:57:48;33.50;58.30
50544;DHT22;41176;44.032;20.900;2022-08-03T09:10:44;34.20;55.50
50544;DHT22;41176;44.032;20.900;2022-08-03T09:45:48;33.70;55.30
50544;DHT22;41176;44.032;20.900;2022-08-03T09:51:33;34.10;52.90
50544;DHT22;41176;44.032;20.900;2022-08-03T09:54:49;34.30;53.40
50544;DHT22;41176;44.032;20.900;2022-08-03T10:42:28;34.20;52.20
50544;DHT22;41176;44.032;20.900;2022-08-03T10:45:22;34.30;51.70
50544;DHT22;41176;44.032;20.900;2022-08-03T10:47:54;34.30;51.90
50544;DHT22;41176;44.032;20.900;2022-08-03T10:57:52;33.50;52.00
50544;DHT22;41176;44.032;20.900;2022-08-03T11:00:27;33.90;52.90
50544;DHT22;41176;44.032;20.900;2022-08-03T11:27:22;33.60;53.00
50544;DHT22;41176;44.032;20.900;2022-08-03T11:30:09;33.80;51.10
50544;DHT22;41176;44.032;20.900;2022-08-03T11:39:51;33.60;52.60
50544;DHT22;41176;44.032;20.900;2022-08-03T11:45:06;33.50;52.30
50544;DHT22;41176;44.032;20.900;2022-08-03T11:47:36;33.60;53.10
50544;DHT22;41176;44.032;20.900;2022-08-03T11:53:31;33.70;51.60
50544;DHT22;41176;44.032;20.900;2022-08-03T12:10:12;32.10;53.90
50544;DHT22;41176;44.032;20.900;2022-08-03T12:12:39;32.30;54.80
50544;DHT22;41176;44.032;20.900;2022-08-03T12:15:07;32.70;54.80
50544;DHT22;41176;44.032;20.900;2022-08-03T12:17:38;33.00;53.70
50544;DHT22;41176;44.032;20.900;2022-08-03T12:20:22;33.00;53.90
50544;DHT22;41176;44.032;20.900;2022-08-03T12:22:48;33.30;53.00
50544;DHT22;41176;44.032;20.900;2022-08-03T12:25:26;33.30;51.70
50544;DHT22;41176;44.032;20.900;2022-08-03T12:31:07;33.60;51.90
50544;DHT22;41176;44.032;20.900;2022-08-03T12:34:11;33.50;50.90
50544;DHT22;41176;44.032;20.900;2022-08-03T12:36:52;33.70;51.40
50544;DHT22;41176;44.032;20.900;2022-08-03T12:39:22;33.70;51.10
50544;DHT22;41176;44.032;20.900;2022-08-03T12:41:53;33.60;51.00
50544;DHT22;41176;44.032;20.900;2022-08-03T12:44:39;33.60;50.40
50544;DHT22;41176;44.032;20.900;2022-08-03T12:47:14;33.70;50.30
50544;DHT22;41176;44.032;20.900;2022-08-03T12:50:21;33.80;51.00
50544;DHT22;41176;44.032;20.900;2022-08-03T12:53:28;33.90;49.50
50544;DHT22;41176;44.032;20.900;2022-08-03T12:56:04;34.10;52.10
50544;DHT22;41176;44.032;20.900;2022-08-03T12:58:52;34.20;50.40
50544;DHT22;41176;44.032;20.900;2022-08-03T13:02:12;34.20;50.80
50544;DHT22;41176;44.032;20.900;2022-08-03T13:04:39;33.90;49.30
50544;DHT22;41176;44.032;20.900;2022-08-03T13:10:32;34.10;50.30
50544;DHT22;41176;44.032;20.900;2022-08-03T13:17:04;34.20;49.20
50544;DHT22;41176;44.032;20.900;2022-08-03T13:19:36;34.20;48.30
50544;DHT22;41176;44.032;20.900;2022-08-03T13:22:12;34.10;48.80
50544;DHT22;41176;44.032;20.900;2022-08-03T13:24:39;34.10;48.60
50544;DHT22;41176;44.032;20.900;2022-08-03T13:27:33;34.10;49.20
50544;DHT22;41176;44.032;20.900;2022-08-03T13:29:58;34.20;49.30
50544;DHT22;41176;44.032;20.900;2022-08-03T13:32:27;34.30;47.90
50544;DHT22;41176;44.032;20.900;2022-08-03T13:38:15;34.30;48.10
50544;DHT22;41176;44.032;20.900;2022-08-03T13:47:46;34.30;47.30
50544;DHT22;41176;44.032;20.900;2022-08-03T13:50:12;34.30;47.20
50544;DHT22;41176;44.032;20.900;2022-08-03T13:52:40;34.30;46.40
50544;DHT22;41176;44.032;20.900;2022-08-03T13:55:12;34.30;46.50
50544;DHT22;41176;44.032;20.900;2022-08-03T13:57:38;34.30;46.50
50544;DHT22;41176;44.032;20.900;2022-08-03T14:04:27;34.20;46.90
50544;DHT22;41176;44.032;20.900;2022-08-03T14:07:09;34.30;45.90
50544;DHT22;41176;44.032;20.900;2022-08-03T14:20:25;34.20;46.00
50544;DHT22;41176;44.032;20.900;2022-08-03T14:22:57;34.10;46.00
50544;DHT22;41176;44.032;20.900;2022-08-03T14:26:18;34.10;45.00
50544;DHT22;41176;44.032;20.900;2022-08-03T14:36:18;34.30;45.70
50544;DHT22;41176;44.032;20.900;2022-08-03T14:39:06;34.20;46.30
50544;DHT22;41176;44.032;20.900;2022-08-03T14:41:58;34.20;44.60
50544;DHT22;41176;44.032;20.900;2022-08-03T14:44:46;34.30;44.50
50544;DHT22;41176;44.032;20.900;2022-08-03T14:47:53;34.40;44.80
50544;DHT22;41176;44.032;20.900;2022-08-03T14:57:42;34.60;45.90
50544;DHT22;41176;44.032;20.900;2022-08-03T15:03:40;34.50;45.20
50544;DHT22;41176;44.032;20.900;2022-08-03T15:06:06;34.50;45.90
50544;DHT22;41176;44.032;20.900;2022-08-03T15:08:37;34.50;44.80
50544;DHT22;41176;44.032;20.900;2022-08-03T15:11:30;34.60;44.70
50544;DHT22;41176;44.032;20.900;2022-08-03T15:21:57;34.40;45.20
50544;DHT22;41176;44.032;20.900;2022-08-03T15:31:33;34.40;45.40
50544;DHT22;41176;44.032;20.900;2022-08-03T15:37:58;34.40;45.80
50544;DHT22;41176;44.032;20.900;2022-08-03T15:40:24;34.40;46.30
50544;DHT22;41176;44.032;20.900;2022-08-03T15:42:50;34.50;46.40
50544;DHT22;41176;44.032;20.900;2022-08-03T16:09:34;35.00;45.60
50544;DHT22;41176;44.032;20.900;2022-08-03T16:26:18;34.40;47.70
50544;DHT22;41176;44.032;20.900;2022-08-03T16:29:25;34.30;47.00
50544;DHT22;41176;44.032;20.900;2022-08-03T16:39:15;33.90;46.70
50544;DHT22;41176;44.032;20.900;2022-08-03T16:49:10;32.90;50.60
50544;DHT22;41176;44.032;20.900;2022-08-03T16:52:13;32.60;50.30
50544;DHT22;41176;44.032;20.900;2022-08-03T16:55:23;32.30;51.40
50544;DHT22;41176;44.032;20.900;2022-08-03T17:02:18;31.80;53.10
50544;DHT22;41176;44.032;20.900;2022-08-03T17:04:48;31.60;52.60
50544;DHT22;41176;44.032;20.900;2022-08-03T17:07:16;31.50;53.50
50544;DHT22;41176;44.032;20.900;2022-08-03T17:09:47;31.30;55.90
50544;DHT22;41176;44.032;20.900;2022-08-03T17:12:21;31.10;54.60
50544;DHT22;41176;44.032;20.900;2022-08-03T17:14:56;30.90;54.40
50544;DHT22;41176;44.032;20.900;2022-08-03T17:24:13;30.30;56.40
50544;DHT22;41176;44.032;20.900;2022-08-03T17:26:48;30.20;57.00
50544;DHT22;41176;44.032;20.900;2022-08-03T17:29:18;30.00;58.50
50544;DHT22;41176;44.032;20.900;2022-08-03T17:31:44;29.80;58.10
50544;DHT22;41176;44.032;20.900;2022-08-03T17:34:10;29.70;58.30
50544;DHT22;41176;44.032;20.900;2022-08-03T17:36:43;29.60;59.00
50544;DHT22;41176;44.032;20.900;2022-08-03T17:42:42;29.30;59.10
50544;DHT22;41176;44.032;20.900;2022-08-03T17:45:16;29.20;58.90
50544;DHT22;41176;44.032;20.900;2022-08-03T17:47:44;29.10;59.00
50544;DHT22;41176;44.032;20.900;2022-08-03T17:50:14;29.00;58.80
50544;DHT22;41176;44.032;20.900;2022-08-03T17:52:47;28.90;58.80
50544;DHT22;41176;44.032;20.900;2022-08-03T17:55:28;28.80;59.80
50544;DHT22;41176;44.032;20.900;2022-08-03T17:58:24;28.70;59.70
50544;DHT22;41176;44.032;20.900;2022-08-03T18:01:09;28.60;60.90
50544;DHT22;41176;44.032;20.900;2022-08-03T18:04:02;28.50;60.00
50544;DHT22;41176;44.032;20.900;2022-08-03T18:06:34;28.40;60.50
50544;DHT22;41176;44.032;20.900;2022-08-03T18:09:25;28.30;60.50
50544;DHT22;41176;44.032;20.900;2022-08-03T18:12:39;28.30;61.00
50544;DHT22;41176;44.032;20.900;2022-08-03T18:18:38;28.10;60.20
50544;DHT22;41176;44.032;20.900;2022-08-03T18:24:45;28.00;60.00
50544;DHT22;41176;44.032;20.900;2022-08-03T18:27:13;27.90;60.00
50544;DHT22;41176;44.032;20.900;2022-08-03T18:29:41;27.90;59.80
50544;DHT22;41176;44.032;20.900;2022-08-03T18:32:08;27.80;60.40
50544;DHT22;41176;44.032;20.900;2022-08-03T18:34:35;27.80;60.40
50544;DHT22;41176;44.032;20.900;2022-08-03T18:39:54;27.60;60.30
50544;DHT22;41176;44.032;20.900;2022-08-03T18:42:20;27.50;63.90
50544;DHT22;41176;44.032;20.900;2022-08-03T18:44:46;27.10;65.60
50544;DHT22;41176;44.032;20.900;2022-08-03T18:47:26;26.90;65.90
50544;DHT22;41176;44.032;20.900;2022-08-03T18:50:35;26.80;65.80
50544;DHT22;41176;44.032;20.900;2022-08-03T18:53:11;26.80;65.40
50544;DHT22;41176;44.032;20.900;2022-08-03T18:55:46;26.80;65.60
50544;DHT22;41176;44.032;20.900;2022-08-03T18:58:22;26.70;66.70
50544;DHT22;41176;44.032;20.900;2022-08-03T19:01:09;26.70;66.60
50544;DHT22;41176;44.032;20.900;2022-08-03T19:03:42;26.60;67.50
50544;DHT22;41176;44.032;20.900;2022-08-03T19:06:20;26.40;67.50
50544;DHT22;41176;44.032;20.900;2022-08-03T19:11:32;26.40;68.10
50544;DHT22;41176;44.032;20.900;2022-08-03T19:14:04;26.40;68.40
50544;DHT22;41176;44.032;20.900;2022-08-03T19:16:36;26.20;69.20
50544;DHT22;41176;44.032;20.900;2022-08-03T19:19:07;26.20;69.00
50544;DHT22;41176;44.032;20.900;2022-08-03T19:21:35;26.20;68.70
50544;DHT22;41176;44.032;20.900;2022-08-03T19:24:06;26.10;68.90
50544;DHT22;41176;44.032;20.900;2022-08-03T19:26:36;26.10;69.10
50544;DHT22;41176;44.032;20.900;2022-08-03T19:29:06;26.10;68.30
50544;DHT22;41176;44.032;20.900;2022-08-03T19:31:33;26.10;68.30
50544;DHT22;41176;44.032;20.900;2022-08-03T19:34:02;25.90;68.30
50544;DHT22;41176;44.032;20.900;2022-08-03T19:36:28;25.90;67.90
50544;DHT22;41176;44.032;20.900;2022-08-03T19:38:56;26.00;68.20
50544;DHT22;41176;44.032;20.900;2022-08-03T19:41:27;25.90;68.50
50544;DHT22;41176;44.032;20.900;2022-08-03T19:44:02;25.90;69.30
50544;DHT22;41176;44.032;20.900;2022-08-03T19:46:30;25.80;69.20
50544;DHT22;41176;44.032;20.900;2022-08-03T19:49:13;25.80;69.50
50544;DHT22;41176;44.032;20.900;2022-08-03T19:51:40;25.80;70.00
50544;DHT22;41176;44.032;20.900;2022-08-03T19:54:09;25.70;70.00
50544;DHT22;41176;44.032;20.900;2022-08-03T19:56:48;25.60;70.10
50544;DHT22;41176;44.032;20.900;2022-08-03T19:59:18;25.50;69.30
50544;DHT22;41176;44.032;20.900;2022-08-03T20:01:45;25.30;69.40
50544;DHT22;41176;44.032;20.900;2022-08-03T20:04:12;25.40;69.40
50544;DHT22;41176;44.032;20.900;2022-08-03T20:20:38;25.10;70.70
50544;DHT22;41176;44.032;20.900;2022-08-03T20:23:19;25.10;71.40
50544;DHT22;41176;44.032;20.900;2022-08-03T20:25:57;24.90;71.50
50544;DHT22;41176;44.032;20.900;2022-08-03T20:28:37;24.90;71.80
50544;DHT22;41176;44.032;20.900;2022-08-03T20:31:17;24.90;73.20
50544;DHT22;41176;44.032;20.900;2022-08-03T20:34:03;24.70;73.70
50544;DHT22;41176;44.032;20.900;2022-08-03T20:36:29;24.60;73.30
50544;DHT22;41176;44.032;20.900;2022-08-03T20:38:56;24.60;73.50
50544;DHT22;41176;44.032;20.900;2022-08-03T20:41:23;24.50;73.80
50544;DHT22;41176;44.032;20.900;2022-08-03T20:43:49;24.40;73.50
50544;DHT22;41176;44.032;20.900;2022-08-03T20:46:17;24.20;74.90
50544;DHT22;41176;44.032;20.900;2022-08-03T20:48:44;23.90;75.20
50544;DHT22;41176;44.032;20.900;2022-08-03T20:51:11;23.90;75.30
50544;DHT22;41176;44.032;20.900;2022-08-03T20:53:41;23.90;75.40
50544;DHT22;41176;44.032;20.900;2022-08-03T20:56:11;23.80;75.50
50544;DHT22;41176;44.032;20.900;2022-08-03T20:58:38;23.80;75.50
50544;DHT22;41176;44.032;20.900;2022-08-03T21:01:05;23.70;75.00
50544;DHT22;41176;44.032;20.900;2022-08-03T21:03:32;23.70;75.10
50544;DHT22;41176;44.032;20.900;2022-08-03T21:06:00;23.70;75.00
50544;DHT22;41176;44.032;20.900;2022-08-03T21:08:32;23.70;74.90
50544;DHT22;41176;44.032;20.900;2022-08-03T21:11:01;23.70;75.70
50544;DHT22;41176;44.032;20.900;2022-08-03T21:13:37;23.60;75.30
50544;DHT22;41176;44.032;20.900;2022-08-03T21:16:04;23.60;75.50
50544;DHT22;41176;44.032;20.900;2022-08-03T21:18:35;23.60;76.00
50544;DHT22;41176;44.032;20.900;2022-08-03T21:21:02;23.50;75.00
50544;DHT22;41176;44.032;20.900;2022-08-03T21:23:30;23.60;74.80
50544;DHT22;41176;44.032;20.900;2022-08-03T21:26:00;23.60;74.70
50544;DHT22;41176;44.032;20.900;2022-08-03T21:28:27;23.50;74.70
50544;DHT22;41176;44.032;20.900;2022-08-03T21:30:54;23.50;74.80
50544;DHT22;41176;44.032;20.900;2022-08-03T21:33:27;23.50;75.60
50544;DHT22;41176;44.032;20.900;2022-08-03T21:35:57;23.50;76.60
50544;DHT22;41176;44.032;20.900;2022-08-03T21:38:24;23.50;76.20
50544;DHT22;41176;44.032;20.900;2022-08-03T21:40:51;23.50;76.70
50544;DHT22;41176;44.032;20.900;2022-08-03T21:43:18;23.50;75.90
50544;DHT22;41176;44.032;20.900;2022-08-03T21:45:59;23.50;76.10
50544;DHT22;41176;44.032;20.900;2022-08-03T21:48:26;23.50;75.70
50544;DHT22;41176;44.032;20.900;2022-08-03T21:50:53;23.50;75.20
50544;DHT22;41176;44.032;20.900;2022-08-03T21:53:20;23.50;75.30
50544;DHT22;41176;44.032;20.900;2022-08-03T21:55:56;23.50;75.20
50544;DHT22;41176;44.032;20.900;2022-08-03T21:58:39;23.40;74.90
50544;DHT22;41176;44.032;20.900;2022-08-03T22:01:08;23.40;74.40
50544;DHT22;41176;44.032;20.900;2022-08-03T22:03:36;23.40;73.40
50544;DHT22;41176;44.032;20.900;2022-08-03T22:06:03;23.50;73.20
50544;DHT22;41176;44.032;20.900;2022-08-03T22:08:29;23.50;72.60
50544;DHT22;41176;44.032;20.900;2022-08-03T22:10:58;23.50;72.70
50544;DHT22;41176;44.032;20.900;2022-08-03T22:13:26;23.50;72.20
50544;DHT22;41176;44.032;20.900;2022-08-03T22:15:53;23.50;72.30
50544;DHT22;41176;44.032;20.900;2022-08-03T22:18:19;23.50;72.50
50544;DHT22;41176;44.032;20.900;2022-08-03T22:20:50;23.50;73.90
50544;DHT22;41176;44.032;20.900;2022-08-03T22:23:18;23.20;75.10
50544;DHT22;41176;44.032;20.900;2022-08-03T22:25:50;23.00;76.40
50544;DHT22;41176;44.032;20.900;2022-08-03T22:28:18;22.90;76.20
50544;DHT22;41176;44.032;20.900;2022-08-03T22:30:47;22.90;76.20
50544;DHT22;41176;44.032;20.900;2022-08-03T22:33:17;22.80;76.30
50544;DHT22;41176;44.032;20.900;2022-08-03T22:35:45;22.60;76.80